This is the latest recevied weather packets stored in our database for station/object CQ0XSM-11. If no packets are shown the sender has not sent any weather packets the latest 10 day(s).
| Time | Temp. | Humidity | Pressure | Rain* | Wind** | Luminosity | Snow |
|---|---|---|---|---|---|---|---|
| 1777208678 | 24.44° C | 33% | 996.1 hPa | 0 mm | - | - | - |
| 1777208417 | 24.44° C | 32% | 996.2 hPa | 0 mm | - | - | - |
| 1777208089 | 25° C | 32% | 996.2 hPa | 0 mm | - | - | - |
| 1777207786 | 25° C | 32% | 996.3 hPa | 0 mm | - | - | - |
| 1777207184 | 23.89° C | 33% | 996.4 hPa | 0 mm | - | - | - |
| 1777206859 | 24.44° C | 33% | 996.4 hPa | 0 mm | - | - | - |
| 1777206591 | 24.44° C | 37% | 996.4 hPa | 0 mm | - | - | - |
| 1777206253 | 24.44° C | 32% | 996.5 hPa | 0 mm | - | - | - |
| 1777205967 | 24.44° C | 36% | 996.6 hPa | 0 mm | - | - | - |
| 1777205662 | 23.33° C | 41% | 996.6 hPa | 0 mm | - | - | - |
| 1777205371 | 23.89° C | 38% | 996.7 hPa | 0 mm | - | - | - |
| 1777205041 | 25° C | 37% | 996.8 hPa | 0 mm | - | - | - |
| 1777204771 | 23.89° C | 39% | 996.8 hPa | 0 mm | - | - | - |
| 1777204447 | 23.89° C | 39% | 996.9 hPa | 0 mm | - | - | - |
| 1777204139 | 24.44° C | 37% | 996.9 hPa | 0 mm | - | - | - |
| 1777203861 | 24.44° C | 39% | 996.9 hPa | 0 mm | - | - | - |
| 1777203534 | 24.44° C | 38% | 996.9 hPa | 0 mm | - | - | - |
| 1777203233 | 24.44° C | 40% | 996.9 hPa | 0 mm | - | - | - |
| 1777202953 | 24.44° C | 42% | 997 hPa | 0 mm | - | - | - |
| 1777202626 | 23.89° C | 43% | 997.1 hPa | 0 mm | - | - | - |
| 1777202316 | 23.33° C | 44% | 997 hPa | 0 mm | - | - | - |
| 1777202033 | 23.33° C | 45% | 997 hPa | 0 mm | - | - | - |
| 1777201716 | 22.78° C | 46% | 997.1 hPa | 0 mm | - | - | - |
| 1777201402 | 23.33° C | 45% | 997.1 hPa | 0 mm | - | - | - |
| 1777201137 | 23.33° C | 44% | 997.2 hPa | 0 mm | - | - | - |
* Rain since midnight (hover to see other rain measurements)
** Current wind speed in m/s (hover to see current wind gust speed)